createdAt,value
2022-12-27T00:01:51.903Z,87.95
2022-12-27T00:05:18.777Z,88.28
2022-12-27T00:08:46.299Z,87.89
2022-12-27T00:12:13.251Z,87.12
2022-12-27T00:15:40.188Z,86.93
2022-12-27T00:19:07.433Z,87.02
2022-12-27T00:22:34.279Z,86.98
2022-12-27T00:26:05.090Z,87.17
2022-12-27T00:29:31.936Z,86.85
2022-12-27T00:32:58.918Z,86.73
2022-12-27T00:36:27.663Z,86.60
2022-12-27T00:39:54.634Z,85.49
2022-12-27T00:43:21.574Z,85.93
2022-12-27T00:46:48.725Z,84.65
2022-12-27T00:50:16.067Z,85.44
2022-12-27T00:53:44.761Z,85.39
2022-12-27T00:57:11.593Z,85.46
2022-12-27T01:00:38.848Z,85.75
2022-12-27T01:04:06.778Z,85.85
2022-12-27T01:07:34.204Z,85.39
2022-12-27T01:11:01.275Z,85.71
2022-12-27T01:14:28.350Z,84.82
2022-12-27T01:17:55.359Z,84.42
2022-12-27T01:21:27.994Z,84.01
2022-12-27T01:24:55.549Z,84.27
2022-12-27T01:28:22.381Z,84.72
2022-12-27T01:31:50.283Z,85.31
2022-12-27T01:35:17.377Z,85.25
2022-12-27T01:38:44.771Z,85.50
2022-12-27T01:42:35.848Z,85.64
2022-12-27T01:46:04.029Z,86.07
2022-12-27T01:49:31.270Z,86.16
2022-12-27T01:53:03.684Z,86.26
2022-12-27T01:56:33.016Z,86.55
2022-12-27T02:00:00.016Z,86.77
2022-12-27T02:03:30.459Z,87.12
2022-12-27T02:06:58.064Z,87.17
2022-12-27T02:10:25.252Z,87.28
2022-12-27T02:13:52.257Z,87.26
2022-12-27T02:17:21.255Z,87.40
2022-12-27T02:21:09.169Z,87.42
2022-12-27T02:24:56.203Z,87.28
2022-12-27T02:28:35.723Z,87.54
2022-12-27T02:32:08.914Z,87.62
2022-12-27T02:35:40.521Z,87.37
2022-12-27T02:39:09.964Z,87.42
2022-12-27T02:42:54.721Z,87.44
2022-12-27T02:46:42.822Z,87.75
2022-12-27T02:50:30.606Z,87.65
2022-12-27T02:54:10.546Z,87.72
2022-12-27T02:57:50.269Z,87.75
2022-12-27T03:01:36.638Z,87.71
2022-12-27T03:05:16.940Z,87.67
2022-12-27T03:08:48.390Z,87.98
2022-12-27T03:12:43.470Z,87.91
2022-12-27T03:16:22.204Z,87.79
2022-12-27T03:20:10.441Z,87.82
2022-12-27T03:23:58.050Z,87.67
2022-12-27T03:27:30.459Z,87.58
2022-12-27T03:31:18.799Z,87.70
2022-12-27T03:34:52.216Z,87.58
2022-12-27T03:38:19.186Z,87.46
2022-12-27T03:42:07.389Z,87.52
2022-12-27T03:46:03.456Z,87.28
2022-12-27T03:49:36.559Z,87.71
2022-12-27T03:53:10.749Z,87.63
2022-12-27T03:56:38.132Z,87.72
2022-12-27T04:00:06.196Z,87.43
2022-12-27T04:03:40.140Z,87.26
2022-12-27T04:07:07.656Z,87.61
2022-12-27T04:10:52.086Z,87.49
2022-12-27T04:14:36.943Z,87.63
2022-12-27T04:18:21.692Z,86.97
2022-12-27T04:22:06.271Z,87.01
2022-12-27T04:25:51.097Z,86.31
2022-12-27T04:29:35.666Z,86.47
2022-12-27T04:33:20.247Z,86.10
2022-12-27T04:36:47.159Z,86.15
2022-12-27T04:40:32.416Z,86.41
2022-12-27T04:44:17.115Z,86.39
2022-12-27T04:48:01.494Z,86.03
2022-12-27T04:51:45.331Z,85.81
2022-12-27T04:55:22.563Z,86.13
2022-12-27T04:59:03.535Z,86.03
2022-12-27T05:02:30.620Z,86.08
2022-12-27T05:05:58.004Z,86.10
2022-12-27T05:09:42.001Z,86.41
2022-12-27T05:13:30.667Z,86.38
2022-12-27T05:16:57.685Z,86.82
2022-12-27T05:20:25.155Z,87.25
2022-12-27T05:24:09.099Z,87.19
2022-12-27T05:27:36.057Z,87.40
2022-12-27T05:31:04.913Z,87.64
2022-12-27T05:34:32.208Z,87.34
2022-12-27T05:37:59.180Z,87.46
2022-12-27T05:41:26.960Z,87.24
2022-12-27T05:44:54.101Z,87.39
2022-12-27T05:48:21.169Z,87.61
2022-12-27T05:51:48.133Z,87.66
2022-12-27T05:55:15.074Z,87.76
2022-12-27T05:58:42.009Z,87.95
2022-12-27T06:02:08.987Z,88.19
2022-12-27T06:05:35.993Z,88.28
2022-12-27T06:09:02.908Z,88.78
2022-12-27T06:12:30.228Z,88.89
2022-12-27T06:15:58.979Z,89.02
2022-12-27T06:19:26.025Z,89.19
2022-12-27T06:22:53.193Z,89.40
2022-12-27T06:26:22.441Z,89.93
2022-12-27T06:29:49.531Z,90.00
2022-12-27T06:33:16.549Z,90.27
2022-12-27T06:36:49.816Z,90.07
2022-12-27T06:40:16.900Z,90.30
2022-12-27T06:43:44.297Z,90.11
2022-12-27T06:47:11.297Z,90.14
2022-12-27T06:50:38.915Z,90.06
2022-12-27T06:54:06.650Z,89.98
2022-12-27T06:57:33.505Z,89.90
2022-12-27T07:01:07.438Z,89.99
2022-12-27T07:04:34.574Z,90.03
2022-12-27T07:08:01.512Z,90.19
2022-12-27T07:11:28.797Z,90.12
2022-12-27T07:14:55.643Z,90.31
2022-12-27T07:18:22.697Z,90.16
2022-12-27T07:21:49.843Z,90.22
2022-12-27T07:25:16.771Z,90.42
2022-12-27T07:28:44.300Z,90.22
2022-12-27T07:32:11.326Z,89.97
2022-12-27T07:35:42.192Z,89.80
2022-12-27T07:39:12.521Z,89.77
2022-12-27T07:42:39.454Z,89.98
2022-12-27T07:46:09.048Z,89.86
2022-12-27T07:49:34.333Z,89.84
2022-12-27T07:53:01.419Z,89.82
2022-12-27T07:56:30.538Z,89.81
2022-12-27T07:59:57.427Z,89.69
2022-12-27T08:03:24.711Z,89.81
2022-12-27T08:06:51.899Z,89.64
2022-12-27T08:10:19.213Z,89.77
2022-12-27T08:13:47.380Z,89.88
2022-12-27T08:17:20.361Z,89.86
2022-12-27T08:20:47.357Z,89.83
2022-12-27T08:24:14.309Z,89.64
2022-12-27T08:27:41.517Z,89.95
2022-12-27T08:31:11.336Z,89.76
2022-12-27T08:34:38.563Z,89.68
2022-12-27T08:38:05.418Z,89.80
2022-12-27T08:41:32.737Z,89.74
2022-12-27T08:44:59.854Z,89.48
2022-12-27T08:48:26.998Z,89.35
2022-12-27T08:51:54.104Z,89.34
2022-12-27T08:55:21.421Z,89.23
2022-12-27T08:58:49.461Z,88.96
2022-12-27T09:02:16.640Z,88.64
2022-12-27T09:05:43.793Z,88.52
2022-12-27T09:09:11.122Z,88.35
2022-12-27T09:12:37.989Z,88.36
2022-12-27T09:16:11.067Z,88.13
2022-12-27T09:19:38.226Z,87.70
2022-12-27T09:23:05.317Z,87.50
2022-12-27T09:26:33.175Z,86.89
2022-12-27T09:30:00.082Z,86.83
2022-12-27T09:33:27.901Z,86.85
2022-12-27T09:36:55.736Z,86.17
2022-12-27T09:40:23.032Z,85.98
2022-12-27T09:44:00.327Z,86.20
2022-12-27T09:47:34.228Z,86.40
2022-12-27T09:51:05.201Z,85.75
2022-12-27T09:54:38.366Z,85.62
2022-12-27T09:58:32.242Z,85.11
2022-12-27T10:02:00.124Z,85.25
2022-12-27T10:05:33.848Z,85.14
2022-12-27T10:09:05.647Z,84.78
2022-12-27T10:12:49.232Z,84.71
2022-12-27T10:16:27.975Z,83.64
2022-12-27T10:20:04.122Z,83.79
2022-12-27T10:23:34.229Z,83.29
2022-12-27T10:27:01.398Z,82.02
2022-12-27T10:30:30.973Z,82.44
2022-12-27T10:33:58.253Z,82.31
2022-12-27T10:37:25.685Z,82.01
2022-12-27T10:40:58.731Z,82.07
2022-12-27T10:44:26.548Z,81.85
2022-12-27T10:47:54.811Z,82.17
2022-12-27T10:51:23.566Z,82.51
2022-12-27T10:54:55.774Z,82.94
2022-12-27T10:58:36.946Z,82.34
2022-12-27T11:02:20.474Z,82.17
2022-12-27T11:06:02.484Z,81.72
2022-12-27T11:09:38.125Z,82.32
2022-12-27T11:13:08.124Z,82.47
2022-12-27T11:16:37.764Z,81.96
2022-12-27T11:20:10.610Z,81.92
2022-12-27T11:23:44.527Z,82.13
2022-12-27T11:27:24.455Z,81.28
2022-12-27T11:30:57.548Z,81.39
2022-12-27T11:34:31.651Z,81.64
2022-12-27T11:37:59.271Z,81.33
2022-12-27T11:41:34.223Z,80.62
2022-12-27T11:45:12.571Z,81.42
2022-12-27T11:48:43.314Z,81.01
2022-12-27T11:52:35.134Z,81.44
2022-12-27T11:56:25.543Z,80.57
2022-12-27T12:00:00.678Z,81.44
2022-12-27T12:04:00.162Z,81.49
2022-12-27T12:07:48.302Z,81.59
2022-12-27T12:11:30.551Z,81.57
2022-12-27T12:15:18.587Z,81.90
2022-12-27T12:19:00.753Z,81.94
2022-12-27T12:22:44.813Z,81.75
2022-12-27T12:26:21.741Z,81.83
2022-12-27T12:30:13.941Z,82.16
2022-12-27T12:34:05.807Z,82.16
2022-12-27T12:37:55.359Z,82.37
2022-12-27T12:41:53.597Z,82.11
2022-12-27T12:45:31.123Z,82.62
2022-12-27T12:49:17.236Z,82.36
2022-12-27T12:53:03.252Z,82.46
2022-12-27T12:56:48.122Z,83.12
2022-12-27T13:00:28.637Z,83.23
2022-12-27T13:04:24.103Z,83.20
2022-12-27T13:08:02.726Z,83.52
2022-12-27T13:11:41.773Z,83.23
2022-12-27T13:15:23.374Z,83.20
2022-12-27T13:19:01.993Z,83.38
2022-12-27T13:22:41.458Z,83.42
2022-12-27T13:26:19.192Z,83.42
2022-12-27T13:30:06.249Z,83.44
2022-12-27T13:33:46.023Z,83.54
2022-12-27T13:37:27.156Z,83.47
2022-12-27T13:41:30.545Z,83.46
2022-12-27T13:45:11.140Z,83.64
2022-12-27T13:48:55.192Z,83.68
2022-12-27T13:52:42.703Z,83.75
2022-12-27T13:56:52.832Z,83.62
2022-12-27T14:00:18.232Z,83.66
2022-12-27T14:04:17.970Z,83.80
2022-12-27T14:07:57.668Z,84.15
2022-12-27T14:11:40.534Z,84.23
2022-12-27T14:15:13.811Z,84.28
2022-12-27T14:18:54.139Z,84.74
2022-12-27T14:22:48.455Z,84.42
2022-12-27T14:26:54.630Z,84.50
2022-12-27T14:30:44.134Z,84.68
2022-12-27T14:34:39.779Z,84.77
2022-12-27T14:38:35.910Z,84.54
2022-12-27T14:42:33.500Z,84.39
2022-12-27T14:46:44.717Z,84.51
2022-12-27T14:50:42.487Z,84.40
2022-12-27T14:54:52.016Z,84.59
2022-12-27T14:58:33.281Z,84.68
2022-12-27T15:02:17.657Z,84.46
2022-12-27T15:06:04.264Z,84.70
2022-12-27T15:09:41.271Z,84.57
2022-12-27T15:13:16.979Z,84.57
2022-12-27T15:16:54.059Z,84.42
2022-12-27T15:20:33.747Z,84.64
2022-12-27T15:24:13.434Z,84.66
2022-12-27T15:27:50.181Z,84.69
2022-12-27T15:31:28.442Z,84.47
2022-12-27T15:35:08.015Z,84.42
2022-12-27T15:38:54.142Z,84.54
2022-12-27T15:42:54.174Z,84.48
2022-12-27T15:46:43.825Z,84.62
2022-12-27T15:50:29.533Z,84.75
2022-12-27T15:54:29.126Z,84.57
2022-12-27T15:58:02.463Z,84.70
2022-12-27T16:01:33.890Z,84.49
2022-12-27T16:05:11.190Z,84.63
2022-12-27T16:08:42.475Z,84.77
2022-12-27T16:12:14.224Z,84.60
2022-12-27T16:15:53.523Z,84.61
2022-12-27T16:19:48.673Z,84.64
2022-12-27T16:23:15.647Z,84.79
2022-12-27T16:26:53.133Z,84.88
2022-12-27T16:30:37.021Z,85.19
2022-12-27T16:34:15.060Z,85.25
2022-12-27T16:37:45.966Z,85.61
2022-12-27T16:41:22.851Z,85.62
2022-12-27T16:45:02.871Z,85.85
2022-12-27T16:48:43.329Z,85.91
2022-12-27T16:52:37.188Z,85.88
2022-12-27T16:56:25.385Z,85.88
2022-12-27T17:00:05.845Z,85.91
2022-12-27T17:03:48.121Z,85.62
2022-12-27T17:07:52.007Z,85.60
2022-12-27T17:11:30.206Z,85.48
2022-12-27T17:15:06.109Z,85.72
2022-12-27T17:18:35.848Z,85.72
2022-12-27T17:22:02.403Z,85.60
2022-12-27T17:25:38.943Z,85.63
2022-12-27T17:29:20.032Z,85.79
2022-12-27T17:33:06.696Z,85.67
2022-12-27T17:36:47.006Z,85.45
2022-12-27T17:40:27.597Z,85.23
2022-12-27T17:44:19.582Z,85.34
2022-12-27T17:48:01.730Z,85.31
2022-12-27T17:51:32.520Z,85.56
2022-12-27T17:55:25.632Z,85.68
2022-12-27T17:58:58.060Z,85.90
2022-12-27T18:02:31.347Z,86.08
2022-12-27T18:05:58.867Z,86.35
2022-12-27T18:09:37.386Z,86.43
2022-12-27T18:13:08.075Z,86.63
2022-12-27T18:16:40.959Z,86.54
2022-12-27T18:20:31.208Z,86.89
2022-12-27T18:24:00.396Z,87.26
2022-12-27T18:27:28.132Z,87.57
2022-12-27T18:30:58.642Z,88.07
2022-12-27T18:34:32.164Z,88.09
2022-12-27T18:37:59.496Z,88.23
2022-12-27T18:41:28.774Z,88.59
2022-12-27T18:44:59.753Z,88.90
2022-12-27T18:48:29.217Z,88.95
2022-12-27T18:51:56.565Z,88.86
2022-12-27T18:55:27.591Z,89.40
2022-12-27T18:59:05.919Z,89.74
2022-12-27T19:02:36.301Z,89.69
2022-12-27T19:06:14.328Z,89.71
2022-12-27T19:09:50.230Z,89.84
2022-12-27T19:13:24.560Z,89.89
2022-12-27T19:16:54.942Z,89.75
2022-12-27T19:20:25.839Z,89.69
2022-12-27T19:23:53.109Z,89.69
2022-12-27T19:27:26.629Z,89.57
2022-12-27T19:31:16.421Z,89.24
2022-12-27T19:34:47.689Z,89.36
2022-12-27T19:38:21.867Z,89.59
2022-12-27T19:41:49.469Z,89.87
2022-12-27T19:45:19.381Z,89.78
2022-12-27T19:49:01.101Z,89.85
2022-12-27T19:52:34.071Z,89.90
2022-12-27T19:56:01.960Z,89.63
2022-12-27T19:59:29.151Z,89.80
2022-12-27T20:02:56.267Z,89.95
2022-12-27T20:06:26.845Z,90.04
2022-12-27T20:09:55.382Z,89.87
2022-12-27T20:13:22.835Z,89.75
2022-12-27T20:16:50.115Z,89.65
2022-12-27T20:20:17.137Z,89.97
2022-12-27T20:23:44.860Z,89.94
2022-12-27T20:27:11.754Z,89.97
2022-12-27T20:30:41.015Z,89.92
2022-12-27T20:34:10.110Z,90.17
2022-12-27T20:37:36.963Z,90.37
2022-12-27T20:41:10.270Z,90.57
2022-12-27T20:44:37.149Z,90.57
2022-12-27T20:48:05.448Z,90.74
2022-12-27T20:51:33.487Z,90.59
2022-12-27T20:55:00.441Z,90.52
2022-12-27T20:58:27.625Z,90.71
2022-12-27T21:01:57.173Z,90.83
2022-12-27T21:05:24.797Z,90.84
2022-12-27T21:08:56.699Z,90.93
2022-12-27T21:12:24.906Z,90.85
2022-12-27T21:15:52.052Z,90.72
2022-12-27T21:19:19.907Z,90.99
2022-12-27T21:22:46.897Z,90.78
2022-12-27T21:26:15.921Z,90.72
2022-12-27T21:29:42.868Z,90.88
2022-12-27T21:33:09.787Z,91.08
2022-12-27T21:36:38.316Z,90.97
2022-12-27T21:40:06.221Z,90.79
2022-12-27T21:43:34.449Z,90.97
2022-12-27T21:47:01.742Z,91.13
2022-12-27T21:50:33.869Z,91.29
2022-12-27T21:54:05.051Z,91.14
2022-12-27T21:57:31.924Z,91.35
2022-12-27T22:01:08.356Z,91.43
2022-12-27T22:04:36.264Z,91.52
2022-12-27T22:08:03.220Z,91.54
2022-12-27T22:11:31.831Z,91.63
2022-12-27T22:14:58.848Z,91.89
2022-12-27T22:18:26.413Z,91.83
2022-12-27T22:21:53.360Z,91.87
2022-12-27T22:25:20.605Z,92.08
2022-12-27T22:28:48.073Z,92.18
2022-12-27T22:32:15.298Z,92.37
2022-12-27T22:35:42.509Z,92.58
2022-12-27T22:39:10.206Z,92.28
2022-12-27T22:42:37.300Z,92.10
2022-12-27T22:46:08.813Z,91.96
2022-12-27T22:49:36.170Z,92.17
2022-12-27T22:53:03.266Z,92.30
2022-12-27T22:56:31.747Z,92.72
2022-12-27T23:00:01.565Z,92.56
2022-12-27T23:03:29.229Z,92.61
2022-12-27T23:06:56.223Z,92.83
2022-12-27T23:10:23.220Z,92.63
2022-12-27T23:13:55.112Z,92.83
2022-12-27T23:17:23.016Z,93.13
2022-12-27T23:21:20.867Z,93.13
2022-12-27T23:24:37.596Z,93.16
2022-12-27T23:28:04.712Z,93.30
2022-12-27T23:31:31.926Z,93.68
2022-12-27T23:34:58.782Z,94.07
2022-12-27T23:38:26.360Z,93.71
2022-12-27T23:41:53.469Z,93.69
2022-12-27T23:45:20.391Z,93.76
2022-12-27T23:48:48.049Z,93.87
2022-12-27T23:52:15.048Z,94.06
2022-12-27T23:55:42.227Z,94.17
2022-12-27T23:59:10.345Z,94.38
